Time;durP1;ratioP1;P1;durP2;ratioP2;P2;SDS_P1;SDS_P2;PMS_P1;PMS_P2;Temp;Humidity;BMP_temperature;BMP_pressure;BME280_temperature;BME280_humidity;BME280_pressure;Samples;Min_cycle;Max_cycle;Signal;HPM_P1;HPM_P2
2022/03/25 00:00:44;;;;;;;24.25;6.68;;;34.10;15.30;;;;;;4969371;28;20188;-67
2022/03/25 00:03:10;;;;;;;22.80;6.40;;;34.00;15.40;;;;;;4990354;28;20063;-67
2022/03/25 00:05:37;;;;;;;19.73;6.28;;;33.90;15.20;;;;;;4981040;28;20173;-68
2022/03/25 00:08:04;;;;;;;16.95;5.80;;;33.90;15.20;;;;;;4959273;28;20071;-69
2022/03/25 00:10:30;;;;;;;33.17;8.20;;;33.80;15.70;;;;;;4963082;28;20104;-70
2022/03/25 00:12:57;;;;;;;29.98;6.80;;;33.70;15.30;;;;;;4970397;28;20070;-67
2022/03/25 00:15:24;;;;;;;28.67;7.45;;;33.60;15.50;;;;;;4982919;28;20072;-68
2022/03/25 00:17:50;;;;;;;22.42;7.43;;;33.70;15.70;;;;;;4971352;28;20091;-67
2022/03/25 00:20:17;;;;;;;21.77;6.35;;;33.60;15.50;;;;;;4953690;28;20227;-67
2022/03/25 00:22:43;;;;;;;26.65;5.95;;;33.60;15.50;;;;;;4966248;28;20084;-68
2022/03/25 00:25:11;;;;;;;22.65;6.88;;;33.50;15.40;;;;;;4954658;28;20064;-68
2022/03/25 00:27:37;;;;;;;20.10;6.00;;;33.30;16.00;;;;;;4960690;28;20558;-67
2022/03/25 00:30:04;;;;;;;21.65;5.97;;;33.40;16.30;;;;;;4967453;28;20092;-66
2022/03/25 00:32:31;;;;;;;27.63;6.18;;;33.30;16.20;;;;;;4976926;28;20089;-68
2022/03/25 00:34:57;;;;;;;27.65;5.97;;;33.30;16.30;;;;;;4971645;28;20104;-68
2022/03/25 00:37:25;;;;;;;22.30;5.88;;;33.20;17.50;;;;;;4971597;28;20071;-67
2022/03/25 00:39:52;;;;;;;18.02;4.90;;;33.10;15.90;;;;;;4986206;28;20683;-67
2022/03/25 00:42:19;;;;;;;16.20;4.70;;;32.90;16.80;;;;;;4951299;28;20073;-68
2022/03/25 00:44:47;;;;;;;23.45;5.25;;;32.90;16.10;;;;;;4965345;28;20086;-66
2022/03/25 00:47:14;;;;;;;23.88;4.40;;;32.80;15.40;;;;;;4984486;28;20061;-66
2022/03/25 00:49:42;;;;;;;26.17;5.45;;;32.80;17.00;;;;;;4963406;28;20585;-68
2022/03/25 00:52:08;;;;;;;41.15;5.88;;;32.70;16.50;;;;;;4942759;28;20083;-66
2022/03/25 00:54:36;;;;;;;45.28;5.32;;;32.60;16.40;;;;;;4977094;28;20160;-66
2022/03/25 00:57:02;;;;;;;27.42;6.40;;;32.50;16.90;;;;;;4969973;28;20173;-67
2022/03/25 00:59:29;;;;;;;19.55;5.15;;;32.30;17.50;;;;;;4978734;28;20564;-68
2022/03/25 01:01:56;;;;;;;48.25;6.53;;;32.30;17.00;;;;;;4961638;28;20161;-67
2022/03/25 01:04:22;;;;;;;59.33;6.13;;;32.20;16.60;;;;;;4962190;28;20074;-67
2022/03/25 01:06:49;;;;;;;39.63;5.82;;;32.10;16.80;;;;;;4963182;28;20517;-66
2022/03/25 01:09:15;;;;;;;33.78;5.75;;;32.10;17.20;;;;;;4967616;28;20088;-67
2022/03/25 01:11:42;;;;;;;26.50;5.80;;;31.90;17.60;;;;;;4971810;28;20510;-69
2022/03/25 01:14:08;;;;;;;29.40;6.28;;;31.80;17.90;;;;;;4962517;28;20085;-67
2022/03/25 01:16:35;;;;;;;36.90;5.95;;;31.70;17.00;;;;;;4983285;28;20106;-68
2022/03/25 01:19:02;;;;;;;24.77;5.75;;;31.60;16.60;;;;;;4953876;28;20485;-69
2022/03/25 01:21:29;;;;;;;30.35;5.80;;;31.40;16.40;;;;;;4969725;28;20065;-68
2022/03/25 01:23:56;;;;;;;27.33;5.90;;;31.30;17.70;;;;;;4978397;28;20069;-69
2022/03/25 01:26:23;;;;;;;32.85;6.78;;;31.10;18.50;;;;;;4935899;28;20070;-66
2022/03/25 01:28:49;;;;;;;29.85;5.78;;;30.90;17.60;;;;;;4937026;28;20137;-68
2022/03/25 01:31:16;;;;;;;25.98;5.63;;;30.80;18.30;;;;;;4971615;28;20078;-68
2022/03/25 01:33:43;;;;;;;38.63;6.63;;;30.60;19.20;;;;;;4988181;28;20160;-69
2022/03/25 01:36:09;;;;;;;25.98;6.60;;;30.40;18.50;;;;;;4970889;28;20070;-69
2022/03/25 01:38:35;;;;;;;26.33;6.10;;;30.30;18.30;;;;;;4963076;28;20080;-69
2022/03/25 01:41:03;;;;;;;19.52;5.57;;;30.10;18.40;;;;;;4982004;28;20280;-71
2022/03/25 01:43:30;;;;;;;26.67;6.18;;;29.90;19.00;;;;;;4971120;28;20106;-71
2022/03/25 01:45:56;;;;;;;34.80;6.30;;;29.80;18.90;;;;;;4970431;28;20179;-69
2022/03/25 01:48:23;;;;;;;18.50;5.43;;;29.70;19.10;;;;;;4988275;28;20074;-68
2022/03/25 01:50:50;;;;;;;25.58;5.35;;;29.50;18.90;;;;;;4974943;28;20988;-68
2022/03/25 01:53:27;;;;;;;32.30;4.78;;;29.30;19.00;;;;;;4970165;28;20088;-67
2022/03/25 01:56:01;;;;;;;27.67;5.25;;;29.20;19.30;;;;;;4985054;28;20095;-68
2022/03/25 01:58:29;;;;;;;35.83;5.85;;;29.00;19.40;;;;;;4958067;28;20121;-67
2022/03/25 02:00:57;;;;;;;38.65;5.45;;;28.80;19.70;;;;;;4987980;28;20124;-71
2022/03/25 02:03:24;;;;;;;53.53;6.05;;;28.70;20.50;;;;;;4967918;28;20513;-72
2022/03/25 02:05:50;;;;;;;37.03;6.68;;;28.60;21.00;;;;;;4985712;28;20073;-69
2022/03/25 02:08:17;;;;;;;65.15;7.47;;;28.50;21.20;;;;;;4981851;28;20074;-70
2022/03/25 02:10:45;;;;;;;76.70;7.55;;;28.40;21.00;;;;;;4961006;28;20174;-69
2022/03/25 02:13:12;;;;;;;64.30;8.27;;;28.20;21.30;;;;;;4987624;28;20164;-68
2022/03/25 02:15:41;;;;;;;56.63;8.65;;;28.10;20.90;;;;;;4969587;28;20093;-68
2022/03/25 02:18:10;;;;;;;44.85;9.10;;;27.90;20.70;;;;;;4971888;28;20445;-70
2022/03/25 02:20:37;;;;;;;48.92;10.18;;;27.80;21.00;;;;;;4964883;28;20092;-72
2022/03/25 02:23:05;;;;;;;62.13;9.00;;;27.80;20.80;;;;;;4983199;28;20100;-71
2022/03/25 02:25:31;;;;;;;54.55;8.95;;;27.70;21.10;;;;;;4973046;28;20080;-70
2022/03/25 02:27:59;;;;;;;51.65;9.55;;;27.50;21.30;;;;;;4956338;28;20157;-65
2022/03/25 02:30:27;;;;;;;54.22;9.77;;;27.40;21.30;;;;;;4967210;28;20243;-72
2022/03/25 02:32:57;;;;;;;49.33;8.95;;;27.30;21.60;;;;;;4984671;28;20169;-69
2022/03/25 02:35:46;;;;;;;54.50;9.30;;;27.20;21.80;;;;;;4972487;28;20391;-68
2022/03/25 02:38:15;;;;;;;38.75;8.77;;;27.10;22.10;;;;;;4964235;28;20078;-67
2022/03/25 02:40:42;;;;;;;44.08;9.18;;;27.00;22.50;;;;;;4980651;28;20100;-67
2022/03/25 02:43:11;;;;;;;49.83;9.75;;;26.90;22.90;;;;;;4965199;28;20073;-68
2022/03/25 02:45:38;;;;;;;47.65;10.65;;;26.80;22.70;;;;;;4963290;28;20561;-66
2022/03/25 02:48:05;;;;;;;57.55;13.05;;;26.70;22.70;;;;;;4973659;28;20081;-69
2022/03/25 02:50:31;;;;;;;69.28;13.95;;;26.60;22.90;;;;;;4972626;28;20122;-70
2022/03/25 02:52:59;;;;;;;83.38;14.45;;;26.50;23.70;;;;;;4967431;28;20763;-68
2022/03/25 02:55:26;;;;;;;80.43;14.60;;;26.40;23.70;;;;;;4959891;28;20602;-70
2022/03/25 02:57:54;;;;;;;63.40;14.25;;;26.40;24.90;;;;;;4973287;28;20109;-70
2022/03/25 03:00:22;;;;;;;64.95;13.05;;;26.20;24.70;;;;;;4947293;28;20504;-71
2022/03/25 03:02:48;;;;;;;63.53;13.25;;;26.20;24.70;;;;;;4967658;28;20212;-68
2022/03/25 03:05:17;;;;;;;92.07;14.95;;;26.10;24.60;;;;;;4969350;28;20538;-68
2022/03/25 03:07:45;;;;;;;61.45;12.80;;;25.90;24.50;;;;;;4971592;28;20070;-66
2022/03/25 03:10:12;;;;;;;73.38;12.68;;;25.90;25.00;;;;;;4963846;28;20582;-69
2022/03/25 03:12:41;;;;;;;73.90;13.30;;;25.80;24.90;;;;;;4966424;28;20083;-68
2022/03/25 03:15:08;;;;;;;83.47;14.13;;;25.70;25.10;;;;;;4950563;28;20082;-67
2022/03/25 03:17:35;;;;;;;70.72;13.20;;;25.60;25.10;;;;;;4970162;28;20168;-67
2022/03/25 03:20:02;;;;;;;102.15;13.77;;;25.50;25.20;;;;;;4981835;28;20554;-66
2022/03/25 03:22:29;;;;;;;113.35;12.98;;;25.50;25.40;;;;;;4958940;28;20265;-65
2022/03/25 03:24:55;;;;;;;95.78;12.65;;;25.40;26.00;;;;;;4988749;28;20067;-64
2022/03/25 03:27:22;;;;;;;86.63;12.05;;;25.40;26.00;;;;;;4975203;28;20073;-65
2022/03/25 03:29:49;;;;;;;72.15;11.75;;;25.40;25.70;;;;;;4975466;28;20078;-66
2022/03/25 03:32:18;;;;;;;95.60;13.15;;;25.20;25.50;;;;;;4970077;28;20100;-64
2022/03/25 03:34:45;;;;;;;115.78;14.23;;;25.20;25.60;;;;;;4972281;28;20076;-64
2022/03/25 03:37:11;;;;;;;69.25;11.55;;;25.10;25.60;;;;;;4959637;28;20121;-65
2022/03/25 03:39:38;;;;;;;104.47;13.18;;;25.00;25.70;;;;;;4952420;28;20216;-66
2022/03/25 03:42:04;;;;;;;78.40;12.73;;;24.90;25.80;;;;;;4966858;28;20097;-65
2022/03/25 03:44:31;;;;;;;80.82;11.35;;;24.80;25.80;;;;;;4971350;28;21190;-65
2022/03/25 03:46:57;;;;;;;96.72;12.63;;;24.80;26.00;;;;;;4980970;28;20537;-65
2022/03/25 03:49:24;;;;;;;84.60;12.90;;;24.70;26.10;;;;;;4955986;28;20153;-66
2022/03/25 03:51:50;;;;;;;85.82;13.35;;;24.70;26.00;;;;;;4960281;28;20169;-64
2022/03/25 03:54:17;;;;;;;99.57;14.00;;;24.60;26.10;;;;;;4970077;28;20089;-66
2022/03/25 03:56:43;;;;;;;91.07;14.50;;;24.60;26.30;;;;;;4963791;28;20091;-66
2022/03/25 03:59:10;;;;;;;93.28;13.35;;;24.50;26.50;;;;;;4953485;28;20133;-66
2022/03/25 04:01:37;;;;;;;73.43;13.75;;;24.50;26.60;;;;;;4957570;28;20074;-66
2022/03/25 04:04:03;;;;;;;98.63;14.13;;;24.40;26.60;;;;;;4970499;28;20438;-68
2022/03/25 04:06:30;;;;;;;88.57;14.27;;;24.30;26.70;;;;;;4982589;28;20091;-67
2022/03/25 04:08:59;;;;;;;102.28;14.90;;;24.30;26.90;;;;;;4971748;28;20077;-67
2022/03/25 04:11:26;;;;;;;88.40;14.95;;;24.30;26.90;;;;;;4982708;28;20643;-68
2022/03/25 04:13:53;;;;;;;99.85;16.67;;;24.20;27.00;;;;;;4978084;28;20097;-68
2022/03/25 04:16:22;;;;;;;90.53;15.80;;;24.10;27.30;;;;;;4985380;28;20091;-68
2022/03/25 04:18:51;;;;;;;189.75;19.40;;;24.10;27.70;;;;;;4966618;28;20135;-72
2022/03/25 04:21:18;;;;;;;164.70;18.67;;;24.00;27.90;;;;;;4968607;28;20074;-69
2022/03/25 04:23:45;;;;;;;224.23;21.52;;;23.90;28.30;;;;;;4970550;28;20628;-69
2022/03/25 04:26:12;;;;;;;184.93;20.25;;;23.90;28.40;;;;;;4983001;28;20514;-65
2022/03/25 04:28:38;;;;;;;129.48;17.40;;;23.80;28.20;;;;;;4970852;28;20074;-68
2022/03/25 04:31:04;;;;;;;114.40;16.88;;;23.70;27.90;;;;;;4979796;28;20094;-67
2022/03/25 04:33:33;;;;;;;98.05;16.88;;;23.70;28.60;;;;;;4969510;28;20086;-70
2022/03/25 04:36:04;;;;;;;83.40;15.52;;;23.70;28.10;;;;;;4951800;28;20095;-69
2022/03/25 04:38:30;;;;;;;140.18;21.30;;;23.60;28.00;;;;;;4980776;28;20110;-69
2022/03/25 04:40:56;;;;;;;401.60;36.53;;;23.50;28.00;;;;;;4964727;28;20100;-69
2022/03/25 04:43:23;;;;;;;170.05;24.48;;;23.50;28.50;;;;;;4971110;28;20125;-68
2022/03/25 04:45:53;;;;;;;154.27;23.00;;;23.50;28.70;;;;;;4969616;28;20455;-69
2022/03/25 04:48:19;;;;;;;160.30;22.13;;;23.40;28.70;;;;;;4979144;28;20070;-68
2022/03/25 04:50:46;;;;;;;170.80;22.15;;;23.40;29.20;;;;;;4980312;28;20084;-71
2022/03/25 04:53:13;;;;;;;149.88;21.98;;;23.40;29.70;;;;;;4965533;28;20150;-68
2022/03/25 04:55:41;;;;;;;148.18;21.67;;;23.40;30.40;;;;;;4980061;28;20106;-70
2022/03/25 04:58:07;;;;;;;168.88;23.77;;;23.20;29.50;;;;;;4970484;28;20214;-69
2022/03/25 05:00:35;;;;;;;198.50;25.42;;;23.20;29.50;;;;;;4968563;28;20451;-70
2022/03/25 05:03:01;;;;;;;167.98;24.50;;;23.20;29.00;;;;;;4967543;28;20106;-70
2022/03/25 05:05:28;;;;;;;159.90;22.10;;;23.10;28.80;;;;;;4985165;28;20078;-70
2022/03/25 05:07:54;;;;;;;147.98;21.92;;;23.10;28.80;;;;;;4973027;28;20083;-71
2022/03/25 05:10:20;;;;;;;251.65;29.05;;;23.10;29.00;;;;;;4976674;28;20082;-67
2022/03/25 05:12:47;;;;;;;122.38;24.02;;;23.10;29.40;;;;;;4969757;28;20111;-67
2022/03/25 05:15:14;;;;;;;105.18;17.80;;;23.00;29.30;;;;;;4979160;28;20102;-65
2022/03/25 05:17:51;;;;;;;91.03;18.42;;;23.10;28.90;;;;;;4979161;28;20068;-65
2022/03/25 05:20:24;;;;;;;118.88;20.25;;;23.10;29.00;;;;;;4988944;28;20094;-65
2022/03/25 05:22:51;;;;;;;144.73;23.17;;;23.20;28.60;;;;;;4966309;28;20522;-65
2022/03/25 05:25:19;;;;;;;129.25;22.02;;;23.20;28.60;;;;;;4965210;28;20098;-64
2022/03/25 05:27:53;;;;;;;114.55;21.08;;;23.30;28.80;;;;;;4956127;28;20133;-67
2022/03/25 05:30:22;;;;;;;104.00;18.17;;;23.30;28.70;;;;;;4973746;28;20148;-65
2022/03/25 05:32:48;;;;;;;97.40;20.13;;;23.30;28.50;;;;;;4971642;28;20083;-66
2022/03/25 05:35:15;;;;;;;94.20;18.95;;;23.20;28.50;;;;;;4975718;28;20177;-67
2022/03/25 05:37:41;;;;;;;87.00;18.73;;;23.20;28.90;;;;;;4972250;28;20241;-64
2022/03/25 05:40:09;;;;;;;109.22;19.00;;;23.20;28.60;;;;;;4970008;28;20170;-67
2022/03/25 05:42:36;;;;;;;87.22;18.08;;;23.10;28.70;;;;;;4969425;28;20075;-66
2022/03/25 05:45:05;;;;;;;97.78;18.58;;;23.10;29.00;;;;;;4969410;28;20093;-66
2022/03/25 05:47:31;;;;;;;81.72;17.25;;;23.10;29.30;;;;;;4984905;28;20522;-65
2022/03/25 05:49:57;;;;;;;77.68;16.05;;;23.00;29.10;;;;;;4986616;28;20083;-68
2022/03/25 05:52:25;;;;;;;101.93;16.10;;;23.00;29.10;;;;;;4971240;28;20077;-66
2022/03/25 05:54:51;;;;;;;83.40;16.30;;;22.90;29.20;;;;;;4957518;28;20158;-65
2022/03/25 05:57:18;;;;;;;95.40;16.92;;;22.90;29.10;;;;;;4971620;28;20131;-65
2022/03/25 05:59:46;;;;;;;92.40;16.75;;;22.80;29.30;;;;;;4982953;28;20091;-65
2022/03/25 06:02:13;;;;;;;81.53;16.17;;;22.80;29.40;;;;;;4968112;28;20436;-65
2022/03/25 06:04:40;;;;;;;79.03;16.45;;;22.80;29.40;;;;;;4972065;28;20076;-65
2022/03/25 06:07:07;;;;;;;92.03;19.08;;;22.80;29.50;;;;;;4956074;28;20384;-64
2022/03/25 06:09:33;;;;;;;77.63;16.73;;;22.70;29.90;;;;;;4957182;28;20631;-64
2022/03/25 06:12:00;;;;;;;80.13;17.80;;;22.70;30.00;;;;;;4951616;28;20199;-65
2022/03/25 06:14:26;;;;;;;90.55;17.30;;;22.70;30.00;;;;;;4970962;28;20166;-65
2022/03/25 06:16:53;;;;;;;83.35;17.55;;;22.60;30.10;;;;;;4959897;28;20087;-65
2022/03/25 06:19:19;;;;;;;73.53;15.98;;;22.60;30.80;;;;;;4953603;28;20091;-65
2022/03/25 06:21:47;;;;;;;78.88;18.58;;;22.50;30.50;;;;;;4971865;28;20076;-64
2022/03/25 06:24:13;;;;;;;70.68;16.65;;;22.50;30.40;;;;;;4952823;28;20074;-65
2022/03/25 06:26:40;;;;;;;66.88;16.85;;;22.40;30.70;;;;;;4961670;28;20525;-67
2022/03/25 06:29:08;;;;;;;82.15;18.10;;;22.30;30.70;;;;;;4957066;28;20086;-68
2022/03/25 06:31:34;;;;;;;77.78;17.27;;;22.20;31.00;;;;;;4960773;28;20111;-65
2022/03/25 06:34:01;;;;;;;99.90;19.20;;;22.20;31.20;;;;;;4970163;28;20095;-65
2022/03/25 06:36:27;;;;;;;87.90;19.20;;;22.20;31.40;;;;;;4960145;28;20074;-66
2022/03/25 06:38:53;;;;;;;83.57;19.42;;;22.10;31.60;;;;;;4968232;28;20125;-66
2022/03/25 06:41:20;;;;;;;91.90;20.95;;;22.10;32.00;;;;;;4971627;28;20258;-64
2022/03/25 06:43:46;;;;;;;82.93;19.42;;;22.10;32.70;;;;;;4945776;28;20076;-67
2022/03/25 06:46:17;;;;;;;88.35;18.98;;;22.00;32.60;;;;;;4966952;28;20076;-67
2022/03/25 06:48:43;;;;;;;94.43;19.35;;;22.00;32.50;;;;;;4973142;28;20079;-68
2022/03/25 06:51:10;;;;;;;99.28;18.63;;;21.90;32.40;;;;;;4969413;28;20101;-64
2022/03/25 06:53:37;;;;;;;86.70;19.23;;;21.90;32.50;;;;;;4963111;28;20125;-67
2022/03/25 06:56:04;;;;;;;88.50;17.98;;;21.80;32.50;;;;;;4960651;28;20510;-67
2022/03/25 06:58:31;;;;;;;84.63;18.40;;;21.70;32.40;;;;;;4971844;28;20111;-67
2022/03/25 07:00:58;;;;;;;86.85;17.88;;;21.70;32.50;;;;;;4977033;28;20102;-65
2022/03/25 07:03:25;;;;;;;98.00;18.75;;;21.70;33.00;;;;;;4974617;28;20105;-65
2022/03/25 07:05:52;;;;;;;90.75;20.13;;;21.70;33.00;;;;;;4979248;28;20626;-64
2022/03/25 07:08:29;;;;;;;105.53;19.67;;;21.60;33.10;;;;;;4989405;28;20518;-67
2022/03/25 07:10:56;;;;;;;82.78;18.17;;;21.60;33.20;;;;;;4972343;28;20082;-64
2022/03/25 07:13:23;;;;;;;108.07;20.90;;;21.50;33.30;;;;;;4980628;28;20086;-64
2022/03/25 07:15:49;;;;;;;87.85;21.30;;;21.30;33.40;;;;;;4973450;28;20106;-64
2022/03/25 07:18:16;;;;;;;80.82;20.02;;;21.30;33.70;;;;;;4981314;28;20170;-67
2022/03/25 07:20:42;;;;;;;102.55;21.08;;;21.30;34.80;;;;;;4980739;28;20091;-65
2022/03/25 07:23:09;;;;;;;108.85;21.50;;;21.20;34.10;;;;;;4953651;28;20497;-64
2022/03/25 07:25:35;;;;;;;99.00;21.33;;;21.30;34.70;;;;;;4985000;28;20079;-65
2022/03/25 07:28:02;;;;;;;102.53;20.05;;;21.20;34.50;;;;;;4982889;28;20091;-66
2022/03/25 07:30:29;;;;;;;114.55;22.27;;;21.20;34.40;;;;;;4971165;28;20165;-65
2022/03/25 07:32:55;;;;;;;98.82;21.65;;;21.10;34.10;;;;;;4969802;28;20462;-64
2022/03/25 07:35:22;;;;;;;100.65;22.70;;;21.10;34.50;;;;;;4969137;28;20450;-64
2022/03/25 07:37:48;;;;;;;112.72;22.65;;;21.00;34.00;;;;;;4962337;28;20499;-64
2022/03/25 07:40:15;;;;;;;110.68;23.80;;;21.00;34.90;;;;;;4961307;28;20214;-67
2022/03/25 07:42:44;;;;;;;117.45;23.08;;;21.00;34.90;;;;;;4959988;28;20067;-65
2022/03/25 07:45:13;;;;;;;120.55;23.45;;;21.00;34.90;;;;;;4970078;28;20203;-64
2022/03/25 07:47:48;;;;;;;113.32;25.02;;;20.90;34.50;;;;;;4968820;28;20887;-65
2022/03/25 07:50:19;;;;;;;113.95;26.25;;;20.80;34.50;;;;;;4964263;28;20070;-64
2022/03/25 07:52:46;;;;;;;117.65;26.38;;;20.70;34.70;;;;;;4961637;28;20101;-65
2022/03/25 07:55:15;;;;;;;109.72;24.85;;;20.60;35.10;;;;;;4956552;28;20082;-65
2022/03/25 07:57:42;;;;;;;106.90;24.05;;;20.60;35.00;;;;;;4967446;28;20139;-65
2022/03/25 08:00:13;;;;;;;108.72;23.30;;;20.70;35.20;;;;;;4981861;28;20083;-64
2022/03/25 08:02:42;;;;;;;130.75;27.88;;;20.60;35.10;;;;;;4979947;28;20142;-65
2022/03/25 08:05:11;;;;;;;107.18;25.75;;;20.60;35.20;;;;;;4956057;28;20440;-65
2022/03/25 08:07:43;;;;;;;85.75;24.10;;;20.60;35.40;;;;;;4986265;28;20129;-66
2022/03/25 08:10:10;;;;;;;89.57;25.95;;;20.60;35.50;;;;;;4960011;28;20075;-65
2022/03/25 08:12:37;;;;;;;98.03;25.80;;;20.50;35.60;;;;;;4959091;28;20083;-68
2022/03/25 08:15:07;;;;;;;127.47;26.05;;;20.50;35.80;;;;;;4971393;28;20095;-65
2022/03/25 08:17:48;;;;;;;81.80;24.20;;;20.40;35.70;;;;;;4984507;28;20189;-64
2022/03/25 08:20:23;;;;;;;91.40;24.33;;;20.40;36.50;;;;;;4958837;28;20178;-69
2022/03/25 08:22:49;;;;;;;94.72;24.25;;;20.30;36.30;;;;;;4978478;28;20423;-64
2022/03/25 08:28:01;;;;;;;109.72;25.73;;;20.30;36.40;;;;;;4967519;28;21622;-67
2022/03/25 08:30:29;;;;;;;124.43;25.67;;;20.30;37.00;;;;;;4964822;28;20171;-65
2022/03/25 08:32:57;;;;;;;112.28;25.83;;;20.30;37.50;;;;;;4967806;28;20113;-68
2022/03/25 08:35:24;;;;;;;105.95;24.27;;;20.30;37.40;;;;;;4963887;28;20519;-65
2022/03/25 08:37:51;;;;;;;116.13;23.33;;;20.30;37.90;;;;;;4960857;28;20105;-68
2022/03/25 08:40:17;;;;;;;112.50;25.42;;;20.20;37.60;;;;;;4967592;28;20103;-66
2022/03/25 08:42:44;;;;;;;98.97;24.58;;;20.10;37.70;;;;;;4969769;28;20074;-65
2022/03/25 08:45:13;;;;;;;;;;;20.10;37.90;;;;;;4971143;28;20074;-65
2022/03/25 08:47:40;;;;;;;90.72;23.60;;;20.10;38.10;;;;;;4964927;28;19982;-67
2022/03/25 08:50:09;;;;;;;88.70;22.40;;;20.00;38.10;;;;;;4971133;28;20071;-66
2022/03/25 08:52:36;;;;;;;86.18;23.13;;;20.00;38.20;;;;;;4978718;28;20071;-65
2022/03/25 08:55:04;;;;;;;71.50;22.25;;;20.00;37.90;;;;;;4970990;28;20527;-64
2022/03/25 08:57:31;;;;;;;89.07;22.95;;;19.90;37.60;;;;;;4971013;28;20595;-66
2022/03/25 08:59:57;;;;;;;103.75;23.90;;;19.80;37.70;;;;;;4967854;28;20133;-64
2022/03/25 09:02:23;;;;;;;;;;;19.80;37.90;;;;;;4953558;28;20076;-64
2022/03/25 09:04:50;;;;;;;93.13;22.70;;;19.70;38.00;;;;;;4974859;28;20022;-66
2022/03/25 09:07:16;;;;;;;;;;;19.70;38.10;;;;;;4969875;28;20080;-65
2022/03/25 09:09:42;;;;;;;93.15;22.77;;;19.70;38.70;;;;;;4969524;28;19959;-65
2022/03/25 09:12:10;;;;;;;93.70;23.67;;;19.70;39.00;;;;;;4953808;28;20076;-65
2022/03/25 09:14:36;;;;;;;101.78;23.67;;;19.70;38.70;;;;;;4960538;28;20076;-67
2022/03/25 09:17:03;;;;;;;101.88;23.65;;;19.70;38.90;;;;;;4970214;28;20542;-64
2022/03/25 09:19:29;;;;;;;100.88;25.02;;;19.70;39.30;;;;;;4968806;28;20091;-66
2022/03/25 09:21:56;;;;;;;124.40;24.75;;;19.70;39.40;;;;;;4957640;28;20083;-65
2022/03/25 09:24:22;;;;;;;95.00;23.10;;;19.70;39.50;;;;;;4969082;28;20122;-65
2022/03/25 09:26:48;;;;;;;;;;;19.60;39.10;;;;;;4968560;28;20068;-66
2022/03/25 09:29:15;;;;;;;98.00;24.95;;;19.60;39.00;;;;;;4970134;28;19959;-65
2022/03/25 09:31:43;;;;;;;100.13;21.70;;;19.50;39.00;;;;;;4956897;28;20083;-67
2022/03/25 09:36:56;;;;;;;89.95;23.35;;;19.50;39.10;;;;;;4968552;28;20078;-67
2022/03/25 09:39:22;;;;;;;103.70;23.90;;;19.50;39.80;;;;;;4977251;28;20094;-65
2022/03/25 09:41:50;;;;;;;93.95;22.23;;;19.40;39.90;;;;;;4978177;28;20143;-68
2022/03/25 09:44:17;;;;;;;100.57;23.98;;;19.40;40.60;;;;;;4962288;28;20098;-65
2022/03/25 09:46:44;;;;;;;77.72;20.08;;;19.30;40.90;;;;;;4960179;28;20091;-64
2022/03/25 09:49:12;;;;;;;103.05;22.20;;;19.30;40.50;;;;;;4964866;28;20068;-66
2022/03/25 09:51:40;;;;;;;91.80;20.05;;;19.20;40.00;;;;;;4956362;28;20078;-65
2022/03/25 09:54:08;;;;;;;76.88;21.70;;;19.10;40.00;;;;;;4987310;28;20161;-65
2022/03/25 09:56:35;;;;;;;88.07;21.52;;;19.00;40.00;;;;;;4970034;28;20146;-65
2022/03/25 09:59:06;;;;;;;82.63;22.33;;;19.00;40.00;;;;;;4961034;28;20159;-64
2022/03/25 10:01:42;;;;;;;101.97;22.80;;;19.00;40.10;;;;;;4956206;28;20075;-66
2022/03/25 10:04:27;;;;;;;85.47;21.52;;;19.00;40.40;;;;;;4967091;28;20446;-66
2022/03/25 10:06:56;;;;;;;74.43;19.33;;;19.00;40.70;;;;;;4975387;28;20079;-65
2022/03/25 10:09:22;;;;;;;73.18;18.75;;;19.00;40.30;;;;;;4968606;28;20595;-67
2022/03/25 10:11:49;;;;;;;81.88;21.35;;;18.90;40.30;;;;;;4985138;28;20129;-65
2022/03/25 10:14:29;;;;;;;90.85;20.33;;;18.90;40.40;;;;;;4987649;28;20071;-65
2022/03/25 10:16:55;;;;;;;88.10;20.45;;;18.90;40.70;;;;;;4983874;28;20071;-65
2022/03/25 10:19:24;;;;;;;98.45;20.77;;;18.80;40.50;;;;;;4961833;28;20578;-66
2022/03/25 10:22:00;;;;;;;90.55;21.00;;;18.80;40.50;;;;;;4967731;28;20178;-68
2022/03/25 10:24:40;;;;;;;84.88;21.08;;;18.90;40.80;;;;;;4967623;28;20074;-69
2022/03/25 10:27:07;;;;;;;107.90;20.98;;;18.80;41.20;;;;;;4971095;28;20083;-65
2022/03/25 10:29:35;;;;;;;92.60;21.02;;;18.90;41.40;;;;;;4959341;28;20449;-67
2022/03/25 10:32:16;;;;;;;86.47;19.85;;;18.90;41.90;;;;;;4959408;28;20107;-66
2022/03/25 10:34:43;;;;;;;77.45;19.83;;;18.80;41.70;;;;;;4963599;28;20512;-65
2022/03/25 10:37:15;;;;;;;89.13;20.45;;;18.70;41.30;;;;;;4963048;28;20494;-66
2022/03/25 10:39:54;;;;;;;96.30;19.85;;;18.70;41.70;;;;;;4973096;28;20095;-66
2022/03/25 10:42:21;;;;;;;78.93;19.17;;;18.70;42.10;;;;;;4987249;28;20528;-65
2022/03/25 10:44:47;;;;;;;83.85;19.77;;;18.60;41.60;;;;;;4987799;28;20538;-66
2022/03/25 10:47:17;;;;;;;79.90;20.52;;;18.60;41.90;;;;;;4979299;28;20062;-65
2022/03/25 10:49:46;;;;;;;90.28;19.10;;;18.70;42.10;;;;;;4984386;28;20475;-66
2022/03/25 10:52:34;;;;;;;91.10;20.02;;;18.60;42.30;;;;;;4981946;28;20130;-66
2022/03/25 10:55:20;;;;;;;93.78;20.90;;;18.60;42.40;;;;;;4962736;28;20106;-64
2022/03/25 10:57:54;;;;;;;76.57;20.27;;;18.60;42.20;;;;;;4970241;28;20127;-65
2022/03/25 11:00:22;;;;;;;88.20;20.50;;;18.50;42.20;;;;;;4980254;28;20630;-66
2022/03/25 11:02:48;;;;;;;87.72;18.67;;;18.50;42.70;;;;;;4970750;28;20091;-64
2022/03/25 11:05:15;;;;;;;82.50;20.02;;;18.40;42.50;;;;;;4982984;28;20071;-66
2022/03/25 11:07:44;;;;;;;73.10;19.25;;;18.40;42.40;;;;;;4974862;28;20107;-65
2022/03/25 11:10:17;;;;;;;87.65;18.90;;;18.40;42.60;;;;;;4964346;28;20075;-65
2022/03/25 11:12:46;;;;;;;109.43;19.92;;;18.30;42.70;;;;;;4956492;28;20450;-65
2022/03/25 11:15:18;;;;;;;94.13;21.17;;;18.30;42.80;;;;;;4953493;28;20190;-63
2022/03/25 11:17:46;;;;;;;80.72;20.40;;;18.30;43.10;;;;;;4977962;28;20091;-65
2022/03/25 11:20:15;;;;;;;86.07;19.45;;;18.30;43.40;;;;;;4955485;28;20091;-65
2022/03/25 11:23:12;;;;;;;89.30;19.55;;;18.30;43.20;;;;;;4970654;28;20074;-64
2022/03/25 11:25:46;;;;;;;86.45;19.88;;;18.30;43.50;;;;;;4966086;28;20428;-68
2022/03/25 11:28:27;;;;;;;92.93;19.20;;;18.20;44.40;;;;;;4961975;28;20087;-65
2022/03/25 11:30:59;;;;;;;88.80;19.60;;;18.10;45.00;;;;;;4985040;28;20075;-66
2022/03/25 11:33:25;;;;;;;65.35;18.75;;;18.00;44.20;;;;;;4953104;28;20087;-67
2022/03/25 11:36:16;;;;;;;79.50;18.17;;;17.90;43.70;;;;;;4964141;28;20074;-67
2022/03/25 11:38:43;;;;;;;76.63;19.05;;;17.90;43.80;;;;;;4969288;28;20074;-66
2022/03/25 11:41:26;;;;;;;69.20;17.83;;;17.90;43.70;;;;;;4938842;28;20107;-65
2022/03/25 11:44:19;;;;;;;84.63;20.50;;;17.90;43.30;;;;;;4971096;28;20118;-63
2022/03/25 11:47:09;;;;;;;81.60;19.35;;;17.90;43.40;;;;;;4961511;28;20075;-64
2022/03/25 11:49:38;;;;;;;81.75;19.35;;;17.80;43.50;;;;;;4949524;28;20085;-65
2022/03/25 11:52:31;;;;;;;77.97;19.20;;;17.80;43.60;;;;;;4973193;28;20079;-65
2022/03/25 11:55:00;;;;;;;78.30;20.40;;;17.80;43.30;;;;;;4978236;28;20541;-65
2022/03/25 11:57:35;;;;;;;84.72;20.65;;;17.80;43.90;;;;;;4981376;28;20125;-65
2022/03/25 12:00:10;;;;;;;83.53;19.38;;;17.80;43.30;;;;;;4982051;28;20568;-65
2022/03/25 12:02:42;;;;;;;78.65;20.13;;;17.70;42.90;;;;;;4991216;28;20576;-70
2022/03/25 12:05:27;;;;;;;74.53;18.35;;;17.70;43.10;;;;;;4977824;28;21627;-69
2022/03/25 12:08:32;;;;;;;76.68;18.30;;;17.60;43.10;;;;;;4985778;28;20166;-70
2022/03/25 12:11:00;;;;;;;67.78;17.20;;;17.60;42.80;;;;;;4965971;28;20167;-68
2022/03/25 12:14:11;;;;;;;66.80;17.83;;;17.60;42.60;;;;;;4962225;28;20527;-67
2022/03/25 12:16:47;;;;;;;89.70;17.90;;;17.60;43.20;;;;;;4962669;28;20177;-68
2022/03/25 12:19:28;;;;;;;65.38;16.80;;;17.60;42.90;;;;;;4977616;28;20079;-65
2022/03/25 12:22:03;;;;;;;78.80;18.63;;;17.60;43.00;;;;;;4974635;28;20071;-65
2022/03/25 12:24:31;;;;;;;74.85;17.70;;;17.50;43.50;;;;;;4962115;28;20075;-66
2022/03/25 12:27:02;;;;;;;81.10;18.73;;;17.60;44.40;;;;;;4976178;28;20091;-67
2022/03/25 12:29:33;;;;;;;73.93;17.70;;;17.60;44.30;;;;;;4958375;28;20109;-65
2022/03/25 12:32:19;;;;;;;65.60;14.93;;;17.60;44.50;;;;;;4975509;28;20086;-65
2022/03/25 12:35:16;;;;;;;62.42;15.32;;;17.50;43.50;;;;;;4970822;28;20071;-65
2022/03/25 12:38:04;;;;;;;64.55;16.75;;;17.30;43.10;;;;;;4974403;28;20572;-67
2022/03/25 12:40:34;;;;;;;61.60;15.85;;;17.20;43.90;;;;;;4983139;28;20537;-66
2022/03/25 12:43:04;;;;;;;70.70;15.50;;;17.20;44.40;;;;;;4963813;28;20110;-64